createdAt,value
2023-03-14T00:00:03.387Z,78.8
2023-03-14T00:15:13.479Z,78.9
2023-03-14T00:30:29.260Z,78.8
2023-03-14T00:45:39.261Z,78.7
2023-03-14T01:00:49.492Z,78.6
2023-03-14T01:15:59.754Z,78.6
2023-03-14T01:31:09.611Z,78.7
2023-03-14T01:46:19.818Z,78.8
2023-03-14T02:01:29.749Z,78.7
2023-03-14T02:16:40.011Z,78.9
2023-03-14T02:31:50.053Z,78.3
2023-03-14T02:47:02.595Z,78.3
2023-03-14T03:02:12.847Z,78.9
2023-03-14T03:17:22.622Z,78.2
2023-03-14T03:32:35.088Z,78
2023-03-14T03:47:44.782Z,78
2023-03-14T04:02:54.465Z,80.8
2023-03-14T04:18:03.601Z,80.2
2023-03-14T04:33:13.453Z,80.2
2023-03-14T04:48:22.326Z,80.1
2023-03-14T05:03:34.556Z,80
2023-03-14T05:18:44.321Z,79.9
2023-03-14T05:33:53.868Z,80
2023-03-14T05:49:03.639Z,79.9
2023-03-14T06:04:12.956Z,80
2023-03-14T06:19:22.767Z,80
2023-03-14T06:34:32.244Z,79.8
2023-03-14T06:49:41.647Z,79.6
2023-03-14T07:04:52.180Z,79.4
2023-03-14T07:20:01.745Z,79.1
2023-03-14T07:35:14.406Z,79.1
2023-03-14T07:50:27.815Z,79.1
2023-03-14T08:05:37.916Z,79.6
2023-03-14T08:20:48.247Z,79.6
2023-03-14T08:36:01.923Z,79.7
2023-03-14T08:51:11.870Z,79.7
2023-03-14T09:06:21.769Z,79.7
2023-03-14T09:21:31.509Z,79.9
2023-03-14T09:36:41.777Z,80.1
2023-03-14T09:51:51.536Z,79.1
2023-03-14T10:07:05.487Z,78.9
2023-03-14T10:22:15.214Z,79
2023-03-14T10:37:25.470Z,79.5
2023-03-14T10:53:04.059Z,79.8
2023-03-14T11:08:20.358Z,79.8
2023-03-14T11:23:30.186Z,81.5
2023-03-14T11:38:39.139Z,83.3
2023-03-14T11:53:48.136Z,83.7
2023-03-14T12:08:57.805Z,84
2023-03-14T12:24:06.955Z,84.1
2023-03-14T12:39:15.777Z,83.9
2023-03-14T12:54:25.999Z,83.5
2023-03-14T13:09:36.028Z,82.7
2023-03-14T13:24:46.431Z,82.2
2023-03-14T13:39:56.946Z,82.3
2023-03-14T13:55:07.279Z,81.5
2023-03-14T14:10:20.770Z,82
2023-03-14T14:25:30.736Z,82.1
2023-03-14T14:40:40.455Z,81.9
2023-03-14T14:55:50.298Z,81.5
2023-03-14T15:11:00.748Z,81.2
2023-03-14T15:26:11.337Z,80.7
2023-03-14T15:41:20.885Z,80.4
2023-03-14T15:56:31.120Z,80.3
2023-03-14T16:11:41.121Z,79.9
2023-03-14T16:26:50.466Z,79.4
2023-03-14T16:42:00.820Z,78.2
2023-03-14T16:57:10.247Z,78.9
2023-03-14T17:12:20.884Z,79.1
2023-03-14T17:27:30.642Z,79.1
2023-03-14T17:42:40.367Z,78.9
2023-03-14T17:57:50.350Z,78.6
2023-03-14T18:12:59.759Z,78.8
2023-03-14T18:28:09.422Z,78.7
2023-03-14T18:43:21.077Z,78.6
2023-03-14T18:58:30.937Z,78.5
2023-03-14T19:13:39.949Z,78.6
2023-03-14T19:28:49.414Z,78.5
2023-03-14T19:44:01.764Z,78.3
2023-03-14T19:59:11.888Z,78.2
2023-03-14T20:14:24.734Z,78.2
2023-03-14T20:29:34.259Z,78.4
2023-03-14T20:44:43.757Z,78.5
2023-03-14T20:59:53.422Z,78.5
2023-03-14T21:15:02.982Z,78.5
2023-03-14T21:30:12.210Z,78.6
2023-03-14T21:45:21.598Z,78.6
2023-03-14T22:00:30.829Z,78.4
2023-03-14T22:15:40.425Z,78.2
2023-03-14T22:30:50.191Z,78.2
2023-03-14T22:45:59.937Z,78.3
2023-03-14T23:01:09.891Z,78.2
2023-03-14T23:16:41.303Z,78.1
2023-03-14T23:31:51.531Z,78.2
2023-03-14T23:47:01.160Z,78.1
